createdAt,value
2019-01-08T00:04:21.272Z,29.43
2019-01-08T00:09:49.131Z,28.93
2019-01-08T00:12:31.406Z,30.03
2019-01-08T00:15:11.703Z,31.73
2019-01-08T00:17:53.682Z,30.43
2019-01-08T00:20:35.485Z,27.63
2019-01-08T00:23:18.057Z,31.73
2019-01-08T00:25:59.260Z,29.53
2019-01-08T00:28:43.317Z,28.90
2019-01-08T00:31:22.291Z,29.73
2019-01-08T00:34:02.799Z,30.73
2019-01-08T00:36:44.457Z,31.03
2019-01-08T00:39:26.638Z,26.70
2019-01-08T00:47:42.844Z,25.43
2019-01-08T00:50:25.704Z,22.17
2019-01-08T00:53:06.614Z,23.10
2019-01-08T00:58:38.726Z,23.57
2019-01-08T01:01:20.832Z,25.03
2019-01-08T01:06:49.846Z,21.60
2019-01-08T01:09:33.780Z,23.30
2019-01-08T01:12:14.315Z,20.67
2019-01-08T01:14:56.424Z,21.87
2019-01-08T01:17:38.965Z,21.47
2019-01-08T01:20:20.177Z,18.50
2019-01-08T01:23:00.920Z,20.37
2019-01-08T01:25:41.752Z,22.17
2019-01-08T01:28:22.212Z,19.73
2019-01-08T01:31:02.853Z,20.03
2019-01-08T01:33:44.906Z,21.47
2019-01-08T01:39:16.352Z,22.20
2019-01-08T01:44:40.840Z,23.27
2019-01-08T01:50:08.924Z,22.60
2019-01-08T01:55:37.075Z,26.50
2019-01-08T01:58:20.117Z,23.67
2019-01-08T02:03:45.792Z,21.97
2019-01-08T02:06:28.390Z,25.73
2019-01-08T02:09:08.889Z,23.27
2019-01-08T02:11:49.700Z,21.93
2019-01-08T02:14:30.170Z,24.87
2019-01-08T02:17:10.802Z,22.67
2019-01-08T02:22:35.397Z,22.60
2019-01-08T02:25:16.246Z,25.53
2019-01-08T02:27:58.816Z,23.87
2019-01-08T02:33:31.072Z,22.87
2019-01-08T02:36:13.651Z,25.50
2019-01-08T02:38:54.454Z,24.83
2019-01-08T02:41:35.676Z,24.60
2019-01-08T02:44:17.990Z,25.63
2019-01-08T02:46:58.509Z,25.73
2019-01-08T02:49:39.375Z,25.13
2019-01-08T02:52:23.637Z,26.80
2019-01-08T02:57:50.117Z,27.83
2019-01-08T03:00:30.559Z,26.93
2019-01-08T03:03:11.548Z,26.20
2019-01-08T03:05:54.125Z,25.63
2019-01-08T03:08:38.195Z,30.93
2019-01-08T03:11:22.556Z,26.97
2019-01-08T03:16:48.194Z,28.33
2019-01-08T03:19:28.422Z,29.57
2019-01-08T03:22:10.485Z,28.27
2019-01-08T03:24:51.014Z,30.97
2019-01-08T03:27:31.489Z,30.47
2019-01-08T03:30:12.282Z,30.13
2019-01-08T03:32:52.898Z,32.47
2019-01-08T03:38:17.371Z,28.37
2019-01-08T03:43:43.418Z,34.93
2019-01-08T03:46:28.594Z,27.53
2019-01-08T03:49:07.032Z,27.37
2019-01-08T03:51:47.723Z,28.83
2019-01-08T03:54:32.030Z,27.30
2019-01-08T03:57:12.994Z,25.90
2019-01-08T03:59:53.998Z,26.30
2019-01-08T04:02:34.813Z,25.63
2019-01-08T04:08:03.445Z,26.63
2019-01-08T04:16:18.720Z,24.23
2019-01-08T04:18:59.367Z,26.10
2019-01-08T04:21:40.726Z,28.63
2019-01-08T04:24:22.091Z,24.73
2019-01-08T04:27:02.928Z,24.50
2019-01-08T04:29:50.381Z,24.77
2019-01-08T04:32:29.598Z,24.77
2019-01-08T04:35:11.867Z,27.27
2019-01-08T04:37:53.001Z,25.83
2019-01-08T04:40:33.887Z,25.07
2019-01-08T04:43:14.751Z,25.27
2019-01-08T04:45:55.944Z,28.10
2019-01-08T04:48:36.619Z,25.63
2019-01-08T04:51:17.590Z,26.40
2019-01-08T04:54:02.655Z,26.00
2019-01-08T04:56:41.202Z,24.87
2019-01-08T04:59:21.893Z,28.67
2019-01-08T05:02:02.693Z,24.87
2019-01-08T05:04:43.436Z,27.40
2019-01-08T05:07:25.556Z,27.60
2019-01-08T05:10:07.138Z,23.03
2019-01-08T05:12:50.041Z,25.40
2019-01-08T05:15:30.219Z,23.37
2019-01-08T05:18:11.227Z,26.40
2019-01-08T05:20:52.097Z,22.77
2019-01-08T05:23:32.459Z,22.37
2019-01-08T05:26:12.981Z,25.30
2019-01-08T05:28:54.992Z,23.37
2019-01-08T05:31:35.560Z,23.73
2019-01-08T05:34:16.316Z,23.37
2019-01-08T05:36:56.696Z,23.00
2019-01-08T05:39:40.039Z,22.43
2019-01-08T05:42:20.921Z,21.50
2019-01-08T05:45:02.794Z,19.93
2019-01-08T05:47:43.833Z,18.83
2019-01-08T05:50:27.779Z,21.43
2019-01-08T05:53:08.874Z,20.00
2019-01-08T05:55:49.923Z,20.23
2019-01-08T06:01:20.467Z,19.17
2019-01-08T06:04:00.747Z,20.20
2019-01-08T06:06:41.427Z,18.00
2019-01-08T06:09:22.306Z,19.30
2019-01-08T06:12:02.821Z,18.53
2019-01-08T06:14:43.872Z,17.40
2019-01-08T06:17:26.007Z,20.83
2019-01-08T06:20:07.254Z,16.73
2019-01-08T06:25:32.551Z,15.67
2019-01-08T06:28:13.328Z,16.50
2019-01-08T06:30:53.918Z,15.20
2019-01-08T06:33:35.095Z,16.83
2019-01-08T06:36:15.567Z,17.40
2019-01-08T06:38:56.593Z,16.33
2019-01-08T06:41:25.097Z,17.37
2019-01-08T06:44:13.149Z,14.77
2019-01-08T06:47:00.928Z,14.37
2019-01-08T06:49:52.449Z,15.93
2019-01-08T06:52:25.158Z,14.70
2019-01-08T06:55:06.126Z,14.37
2019-01-08T06:57:47.330Z,12.63
2019-01-08T07:00:33.233Z,14.53
2019-01-08T07:03:11.022Z,14.27
2019-01-08T07:05:51.386Z,19.50
2019-01-08T07:08:33.907Z,23.87
2019-01-08T07:11:19.577Z,17.47
2019-01-08T07:16:49.316Z,13.83
2019-01-08T07:22:18.062Z,11.00
2019-01-08T07:25:00.542Z,11.67
2019-01-08T07:27:41.235Z,10.40
2019-01-08T07:30:23.244Z,8.80
2019-01-08T07:33:07.896Z,11.60
2019-01-08T07:35:48.341Z,9.13
2019-01-08T07:38:29.139Z,9.00
2019-01-08T07:41:10.080Z,8.50
2019-01-08T07:46:34.992Z,8.57
2019-01-08T07:51:59.596Z,10.90
2019-01-08T07:54:40.274Z,7.30
2019-01-08T07:57:22.333Z,8.63
2019-01-08T08:02:54.916Z,6.90
2019-01-08T08:08:23.217Z,6.63
2019-01-08T08:11:07.308Z,4.40
2019-01-08T08:13:48.477Z,4.20
2019-01-08T08:16:29.075Z,3.57
2019-01-08T08:19:11.943Z,3.37
2019-01-08T08:21:52.670Z,2.77
2019-01-08T08:24:33.047Z,3.17
2019-01-08T08:27:14.133Z,2.87
2019-01-08T08:29:54.725Z,2.50
2019-01-08T08:32:35.954Z,2.60
2019-01-08T08:35:18.512Z,2.50
2019-01-08T08:37:59.005Z,2.40
2019-01-08T08:40:39.837Z,2.30
2019-01-08T08:43:21.012Z,3.23
2019-01-08T08:46:02.333Z,2.20
2019-01-08T08:48:45.870Z,7.77
2019-01-08T08:51:27.108Z,18.37
2019-01-08T08:54:08.116Z,16.13
2019-01-08T08:56:48.624Z,108.07
2019-01-08T08:59:29.431Z,14.80
2019-01-08T09:02:09.953Z,16.13
2019-01-08T09:04:50.826Z,21.03
2019-01-08T09:07:31.691Z,2.77
2019-01-08T09:10:12.868Z,2.50
2019-01-08T09:12:57.494Z,3.40
2019-01-08T09:15:38.539Z,2.17
2019-01-08T09:18:18.991Z,2.53
2019-01-08T09:21:01.454Z,2.87
2019-01-08T09:23:43.368Z,5.87
2019-01-08T09:26:24.295Z,3.10
2019-01-08T09:29:06.595Z,3.90
2019-01-08T09:31:47.914Z,4.27
2019-01-08T09:34:28.131Z,4.10
2019-01-08T09:37:09.131Z,3.63
2019-01-08T09:39:49.510Z,3.50
2019-01-08T09:42:32.017Z,3.33
2019-01-08T09:47:57.588Z,3.23
2019-01-08T09:50:38.137Z,3.27
2019-01-08T09:53:18.780Z,3.43
2019-01-08T09:55:59.414Z,2.90
2019-01-08T09:58:40.283Z,3.30
2019-01-08T10:01:24.094Z,4.00
2019-01-08T10:04:03.733Z,4.43
2019-01-08T10:06:46.870Z,2.90
2019-01-08T10:12:14.954Z,2.90
2019-01-08T10:14:55.852Z,2.80
2019-01-08T10:17:39.718Z,3.40
2019-01-08T10:20:22.255Z,2.70
2019-01-08T10:23:10.034Z,3.57
2019-01-08T10:28:35.413Z,3.23
2019-01-08T10:31:16.653Z,2.90
2019-01-08T10:33:57.339Z,3.17
2019-01-08T10:36:37.927Z,3.27
2019-01-08T10:39:18.609Z,3.40
2019-01-08T10:41:59.404Z,3.33
2019-01-08T10:44:43.541Z,3.50
2019-01-08T10:47:27.179Z,5.57
2019-01-08T10:50:07.629Z,3.17
2019-01-08T10:52:52.771Z,3.33
2019-01-08T10:55:30.519Z,3.43
2019-01-08T10:58:16.711Z,3.90
2019-01-08T11:00:58.478Z,3.30
2019-01-08T11:03:40.630Z,3.40
2019-01-08T11:06:23.313Z,3.80
2019-01-08T11:09:04.406Z,4.00
2019-01-08T11:11:45.499Z,4.00
2019-01-08T11:14:26.145Z,4.00
2019-01-08T11:19:58.568Z,7.00
2019-01-08T11:22:39.575Z,7.73
2019-01-08T11:25:20.275Z,8.23
2019-01-08T11:30:44.770Z,4.83
2019-01-08T11:33:26.006Z,9.93
2019-01-08T11:36:06.844Z,5.97
2019-01-08T11:38:52.065Z,6.10
2019-01-08T11:41:34.798Z,8.80
2019-01-08T11:44:17.870Z,5.97
2019-01-08T11:47:00.606Z,9.97
2019-01-08T11:49:42.444Z,7.60
2019-01-08T11:52:25.697Z,6.60
2019-01-08T11:55:06.633Z,5.33
2019-01-08T12:00:32.631Z,7.23
2019-01-08T12:03:13.629Z,9.63
2019-01-08T12:05:59.247Z,6.83
2019-01-08T12:08:40.338Z,8.33
2019-01-08T12:11:25.020Z,5.93
2019-01-08T12:16:50.111Z,8.13
2019-01-08T12:22:19.365Z,10.10
2019-01-08T12:27:52.067Z,5.20
2019-01-08T12:30:32.690Z,8.63
2019-01-08T12:33:14.252Z,8.47
2019-01-08T12:35:58.085Z,8.10
2019-01-08T12:41:23.104Z,8.43
2019-01-08T12:46:53.140Z,5.97
2019-01-08T12:49:36.771Z,6.73
2019-01-08T12:52:22.145Z,10.03
2019-01-08T12:55:03.753Z,9.77
2019-01-08T12:58:32.420Z,7.17
2019-01-08T13:00:34.265Z,5.53
2019-01-08T13:03:15.184Z,10.97
2019-01-08T13:05:59.101Z,6.47
2019-01-08T13:11:28.311Z,6.97
2019-01-08T13:14:09.374Z,5.00
2019-01-08T13:16:49.979Z,6.17
2019-01-08T13:19:32.862Z,5.57
2019-01-08T13:22:18.145Z,6.27
2019-01-08T13:24:58.875Z,5.73
2019-01-08T13:30:48.830Z,9.20
2019-01-08T13:36:14.359Z,25.70
2019-01-08T13:38:57.483Z,14.60
2019-01-08T13:41:24.858Z,14.50
2019-01-08T13:44:12.652Z,12.07
2019-01-08T13:49:46.870Z,5.73
2019-01-08T13:52:27.587Z,8.50
2019-01-08T13:55:08.569Z,8.73
2019-01-08T13:57:49.106Z,5.47
2019-01-08T14:00:31.618Z,5.87
2019-01-08T14:03:12.288Z,11.80
2019-01-08T14:05:53.289Z,6.10
2019-01-08T14:08:33.735Z,8.33
2019-01-08T14:11:14.681Z,8.50
2019-01-08T14:13:55.573Z,6.20
2019-01-08T14:16:38.523Z,10.60
2019-01-08T14:22:08.246Z,10.40
2019-01-08T14:27:37.057Z,7.27
2019-01-08T14:33:07.549Z,9.03
2019-01-08T14:35:48.476Z,8.40
2019-01-08T14:38:32.084Z,13.10
2019-01-08T14:41:14.205Z,9.50
2019-01-08T14:43:54.530Z,11.70
2019-01-08T14:46:36.246Z,10.70
2019-01-08T14:49:17.114Z,8.10
2019-01-08T14:51:59.933Z,8.73
2019-01-08T14:54:40.500Z,8.67
2019-01-08T14:57:25.695Z,7.83
2019-01-08T15:00:06.326Z,8.23
2019-01-08T15:02:56.399Z,6.70
2019-01-08T15:05:44.156Z,8.33
2019-01-08T15:08:31.921Z,8.20
2019-01-08T15:11:19.694Z,6.77
2019-01-08T15:14:07.525Z,9.43
2019-01-08T15:20:04.412Z,8.43
2019-01-08T15:22:52.178Z,6.13
2019-01-08T15:25:39.946Z,8.67
2019-01-08T15:31:24.231Z,9.30
2019-01-08T15:37:18.853Z,6.83
2019-01-08T15:40:07.063Z,7.63
2019-01-08T15:43:25.392Z,4.60
2019-01-08T15:48:55.947Z,5.67
2019-01-08T15:51:26.099Z,6.73
2019-01-08T15:54:06.979Z,7.20
2019-01-08T15:56:50.255Z,4.23
2019-01-08T15:59:30.736Z,7.97
2019-01-08T16:05:01.442Z,7.37
2019-01-08T16:07:41.707Z,5.73
2019-01-08T16:10:22.244Z,11.53
2019-01-08T16:13:05.772Z,4.87
2019-01-08T16:15:51.659Z,8.23
2019-01-08T16:18:32.814Z,7.33
2019-01-08T16:21:14.128Z,6.33
2019-01-08T16:23:55.945Z,7.37
2019-01-08T16:26:36.365Z,8.20
2019-01-08T16:29:18.917Z,9.13
2019-01-08T16:32:00.100Z,6.70
2019-01-08T16:37:50.485Z,7.83
2019-01-08T16:40:31.412Z,11.80
2019-01-08T16:43:14.386Z,5.87
2019-01-08T16:45:55.917Z,8.57
2019-01-08T16:48:36.604Z,8.33
2019-01-08T16:51:20.884Z,8.43
2019-01-08T16:54:03.895Z,10.77
2019-01-08T16:56:44.860Z,5.47
2019-01-08T16:59:25.442Z,5.73
2019-01-08T17:04:55.562Z,11.77
2019-01-08T17:10:24.740Z,7.13
2019-01-08T17:13:06.570Z,6.97
2019-01-08T17:15:49.268Z,7.60
2019-01-08T17:18:30.011Z,5.63
2019-01-08T17:21:10.694Z,7.03
2019-01-08T17:23:51.773Z,4.57
2019-01-08T17:26:32.561Z,5.33
2019-01-08T17:29:14.551Z,6.47
2019-01-08T17:31:54.834Z,4.90
2019-01-08T17:34:38.970Z,5.20
2019-01-08T17:37:19.907Z,6.03
2019-01-08T17:40:01.427Z,7.63
2019-01-08T17:42:48.036Z,5.63
2019-01-08T17:45:24.536Z,6.20
2019-01-08T17:51:19.872Z,6.30
2019-01-08T17:54:00.171Z,5.87
2019-01-08T17:56:43.522Z,7.93
2019-01-08T18:02:07.943Z,8.73
2019-01-08T18:04:48.782Z,7.07
2019-01-08T18:07:29.756Z,5.93
2019-01-08T18:10:10.549Z,8.63
2019-01-08T18:12:50.998Z,8.73
2019-01-08T18:15:31.374Z,7.50
2019-01-08T18:18:11.910Z,7.43
2019-01-08T18:20:52.486Z,6.13
2019-01-08T18:23:33.062Z,9.57
2019-01-08T18:26:15.682Z,10.33
2019-01-08T18:28:56.195Z,8.63
2019-01-08T18:31:37.971Z,7.17
2019-01-08T18:34:21.032Z,7.50
2019-01-08T18:37:03.931Z,5.27
2019-01-08T18:39:45.166Z,6.70
2019-01-08T18:42:25.821Z,7.00
2019-01-08T18:45:06.386Z,7.37
2019-01-08T18:47:47.124Z,7.93
2019-01-08T18:50:27.949Z,11.00
2019-01-08T18:53:08.833Z,5.47
2019-01-08T18:55:51.931Z,8.00
2019-01-08T18:58:32.906Z,6.07
2019-01-08T19:01:13.437Z,10.77
2019-01-08T19:03:59.899Z,15.07
2019-01-08T19:06:40.113Z,23.43
2019-01-08T19:09:20.282Z,18.33
2019-01-08T19:12:01.184Z,11.97
2019-01-08T19:14:41.749Z,18.93
2019-01-08T19:17:22.191Z,12.93
2019-01-08T19:20:05.616Z,15.97
2019-01-08T19:22:46.458Z,12.13
2019-01-08T19:25:27.377Z,15.93
2019-01-08T19:28:08.354Z,9.87
2019-01-08T19:30:48.859Z,11.87
2019-01-08T19:33:29.558Z,11.70
2019-01-08T19:36:10.193Z,18.27
2019-01-08T19:38:51.384Z,6.67
2019-01-08T19:41:31.893Z,12.47
2019-01-08T19:44:13.023Z,7.97
2019-01-08T19:46:53.583Z,8.77
2019-01-08T19:49:34.220Z,7.33
2019-01-08T19:52:15.552Z,5.93
2019-01-08T19:54:56.140Z,7.93
2019-01-08T19:57:36.859Z,8.13
2019-01-08T20:00:17.289Z,7.43
2019-01-08T20:02:58.274Z,5.87
2019-01-08T20:05:38.740Z,7.30
2019-01-08T20:08:19.388Z,6.60
2019-01-08T20:11:01.530Z,5.47
2019-01-08T20:13:41.868Z,6.67
2019-01-08T20:16:24.065Z,8.50
2019-01-08T20:19:04.717Z,7.23
2019-01-08T20:21:45.897Z,4.13
2019-01-08T20:24:26.773Z,7.10
2019-01-08T20:27:07.581Z,7.83
2019-01-08T20:29:48.499Z,7.50
2019-01-08T20:32:29.005Z,6.03
2019-01-08T20:35:10.357Z,5.93
2019-01-08T20:37:53.655Z,7.87
2019-01-08T20:40:34.481Z,7.73
2019-01-08T20:43:15.261Z,5.97
2019-01-08T20:45:56.008Z,6.87
2019-01-08T20:51:27.946Z,9.13
2019-01-08T20:54:10.686Z,7.53
2019-01-08T20:56:51.015Z,6.90
2019-01-08T20:59:33.840Z,12.40
2019-01-08T21:02:14.841Z,5.07
2019-01-08T21:04:55.699Z,10.57
2019-01-08T21:07:38.387Z,4.83
2019-01-08T21:10:19.043Z,6.00
2019-01-08T21:12:59.702Z,5.43
2019-01-08T21:15:40.553Z,4.70
2019-01-08T21:18:21.387Z,10.27
2019-01-08T21:21:02.052Z,5.50
2019-01-08T21:23:46.230Z,5.00
2019-01-08T21:26:27.046Z,4.33
2019-01-08T21:29:07.799Z,11.00
2019-01-08T21:31:48.728Z,6.40
2019-01-08T21:34:29.394Z,5.50
2019-01-08T21:37:10.060Z,3.57
2019-01-08T21:39:50.767Z,4.87
2019-01-08T21:42:31.601Z,4.93
2019-01-08T21:45:12.703Z,4.00
2019-01-08T21:47:53.971Z,5.00
2019-01-08T21:50:34.763Z,5.27
2019-01-08T21:53:15.485Z,4.27
2019-01-08T21:55:56.682Z,6.43
2019-01-08T21:58:36.980Z,4.43
2019-01-08T22:01:19.930Z,5.43
2019-01-08T22:04:01.026Z,6.60
2019-01-08T22:06:41.691Z,4.50
2019-01-08T22:09:22.834Z,6.47
2019-01-08T22:12:03.891Z,5.40
2019-01-08T22:14:44.727Z,5.67
2019-01-08T22:17:25.594Z,4.60
2019-01-08T22:20:06.040Z,7.53
2019-01-08T22:22:52.509Z,7.70
2019-01-08T22:25:29.360Z,4.40
2019-01-08T22:28:10.216Z,4.53
2019-01-08T22:30:50.610Z,9.77
2019-01-08T22:36:15.842Z,8.27
2019-01-08T22:38:56.790Z,7.93
2019-01-08T22:41:38.291Z,5.17
2019-01-08T22:44:19.139Z,6.13
2019-01-08T22:46:59.702Z,6.73
2019-01-08T22:49:40.275Z,4.63
2019-01-08T22:52:21.059Z,5.17
2019-01-08T22:55:01.846Z,4.53
2019-01-08T22:57:42.997Z,6.87
2019-01-08T23:00:45.624Z,7.23
2019-01-08T23:03:26.135Z,5.10
2019-01-08T23:06:06.376Z,4.20
2019-01-08T23:08:47.198Z,5.53
2019-01-08T23:11:28.071Z,7.00
2019-01-08T23:14:09.139Z,5.27
2019-01-08T23:16:50.119Z,6.53
2019-01-08T23:19:30.894Z,7.40
2019-01-08T23:22:11.604Z,8.30
2019-01-08T23:24:55.259Z,5.40
2019-01-08T23:27:35.493Z,7.60
2019-01-08T23:30:16.097Z,4.47
2019-01-08T23:32:56.964Z,5.83
2019-01-08T23:35:37.409Z,4.63
2019-01-08T23:38:18.156Z,8.80
2019-01-08T23:40:59.566Z,10.80
2019-01-08T23:43:40.411Z,9.43
2019-01-08T23:46:21.106Z,4.73
2019-01-08T23:49:03.897Z,6.87
2019-01-08T23:51:44.439Z,8.17
2019-01-08T23:54:25.474Z,5.27
2019-01-08T23:57:06.106Z,9.97
2019-01-08T23:59:46.694Z,6.03
